sensor_id;sensor_type;location;lat;lon;timestamp;temperature;humidity
8892;DHT22;4482;54.332;10.118;2023-05-07T00:00:52;8.20;99.90
8892;DHT22;4482;54.332;10.118;2023-05-07T00:03:18;8.20;99.90
8892;DHT22;4482;54.332;10.118;2023-05-07T00:05:45;8.20;99.90
8892;DHT22;4482;54.332;10.118;2023-05-07T00:08:12;8.20;99.90
8892;DHT22;4482;54.332;10.118;2023-05-07T00:10:38;8.20;99.90
8892;DHT22;4482;54.332;10.118;2023-05-07T00:13:05;8.20;99.90
8892;DHT22;4482;54.332;10.118;2023-05-07T00:15:32;8.20;99.90
8892;DHT22;4482;54.332;10.118;2023-05-07T00:18:00;8.30;99.90
8892;DHT22;4482;54.332;10.118;2023-05-07T00:20:26;8.30;99.90
8892;DHT22;4482;54.332;10.118;2023-05-07T00:22:53;8.30;99.90
8892;DHT22;4482;54.332;10.118;2023-05-07T00:25:19;8.30;99.90
8892;DHT22;4482;54.332;10.118;2023-05-07T00:27:46;8.30;99.90
8892;DHT22;4482;54.332;10.118;2023-05-07T00:30:13;8.30;99.90
8892;DHT22;4482;54.332;10.118;2023-05-07T00:32:40;8.30;99.90
8892;DHT22;4482;54.332;10.118;2023-05-07T00:35:08;8.30;99.90
8892;DHT22;4482;54.332;10.118;2023-05-07T00:37:35;8.30;99.90
8892;DHT22;4482;54.332;10.118;2023-05-07T00:40:02;8.30;99.90
8892;DHT22;4482;54.332;10.118;2023-05-07T00:42:30;8.30;99.90
8892;DHT22;4482;54.332;10.118;2023-05-07T00:44:57;8.30;99.90
8892;DHT22;4482;54.332;10.118;2023-05-07T00:47:24;8.30;99.90
8892;DHT22;4482;54.332;10.118;2023-05-07T00:49:51;8.40;99.90
8892;DHT22;4482;54.332;10.118;2023-05-07T00:52:20;8.30;99.90
8892;DHT22;4482;54.332;10.118;2023-05-07T00:54:48;8.40;99.90
8892;DHT22;4482;54.332;10.118;2023-05-07T00:57:14;8.40;99.90
8892;DHT22;4482;54.332;10.118;2023-05-07T00:59:41;8.40;99.90
8892;DHT22;4482;54.332;10.118;2023-05-07T01:02:08;8.40;99.90
8892;DHT22;4482;54.332;10.118;2023-05-07T01:04:34;8.40;99.90
8892;DHT22;4482;54.332;10.118;2023-05-07T01:07:01;8.50;99.90
8892;DHT22;4482;54.332;10.118;2023-05-07T01:09:30;8.50;99.90
8892;DHT22;4482;54.332;10.118;2023-05-07T01:11:57;8.40;99.90
8892;DHT22;4482;54.332;10.118;2023-05-07T01:14:24;8.50;99.90
8892;DHT22;4482;54.332;10.118;2023-05-07T01:16:51;8.50;99.90
8892;DHT22;4482;54.332;10.118;2023-05-07T01:19:18;8.50;99.90
8892;DHT22;4482;54.332;10.118;2023-05-07T01:21:46;8.50;99.90
8892;DHT22;4482;54.332;10.118;2023-05-07T01:24:14;8.50;99.90
8892;DHT22;4482;54.332;10.118;2023-05-07T01:26:41;8.50;99.90
8892;DHT22;4482;54.332;10.118;2023-05-07T01:29:08;8.50;99.90
8892;DHT22;4482;54.332;10.118;2023-05-07T01:31:35;8.50;99.90
8892;DHT22;4482;54.332;10.118;2023-05-07T01:34:02;8.50;99.90
8892;DHT22;4482;54.332;10.118;2023-05-07T01:36:31;8.50;99.90
8892;DHT22;4482;54.332;10.118;2023-05-07T01:38:58;8.50;99.90
8892;DHT22;4482;54.332;10.118;2023-05-07T01:41:26;8.50;99.90
8892;DHT22;4482;54.332;10.118;2023-05-07T01:43:54;8.50;99.90
8892;DHT22;4482;54.332;10.118;2023-05-07T01:46:21;8.50;99.90
8892;DHT22;4482;54.332;10.118;2023-05-07T01:48:48;8.40;99.90
8892;DHT22;4482;54.332;10.118;2023-05-07T01:51:15;8.50;99.90
8892;DHT22;4482;54.332;10.118;2023-05-07T01:53:42;8.50;99.90
8892;DHT22;4482;54.332;10.118;2023-05-07T01:56:09;8.50;99.90
8892;DHT22;4482;54.332;10.118;2023-05-07T01:58:37;8.50;99.90
8892;DHT22;4482;54.332;10.118;2023-05-07T02:01:03;8.50;99.90
8892;DHT22;4482;54.332;10.118;2023-05-07T02:03:30;8.50;99.90
8892;DHT22;4482;54.332;10.118;2023-05-07T02:05:57;8.40;99.90
8892;DHT22;4482;54.332;10.118;2023-05-07T02:08:23;8.50;99.90
8892;DHT22;4482;54.332;10.118;2023-05-07T02:10:50;8.50;99.90
8892;DHT22;4482;54.332;10.118;2023-05-07T02:13:17;8.50;99.90
8892;DHT22;4482;54.332;10.118;2023-05-07T02:15:46;8.50;99.90
8892;DHT22;4482;54.332;10.118;2023-05-07T02:18:16;8.40;99.90
8892;DHT22;4482;54.332;10.118;2023-05-07T02:20:43;8.40;99.90
8892;DHT22;4482;54.332;10.118;2023-05-07T02:23:09;8.40;99.90
8892;DHT22;4482;54.332;10.118;2023-05-07T02:25:36;8.40;99.90
8892;DHT22;4482;54.332;10.118;2023-05-07T02:28:02;8.40;99.90
8892;DHT22;4482;54.332;10.118;2023-05-07T02:30:29;8.50;99.90
8892;DHT22;4482;54.332;10.118;2023-05-07T02:32:57;8.50;99.90
8892;DHT22;4482;54.332;10.118;2023-05-07T02:35:24;8.40;99.90
8892;DHT22;4482;54.332;10.118;2023-05-07T02:37:50;8.40;99.90
8892;DHT22;4482;54.332;10.118;2023-05-07T02:40:17;8.50;99.90
8892;DHT22;4482;54.332;10.118;2023-05-07T02:42:44;8.50;99.90
8892;DHT22;4482;54.332;10.118;2023-05-07T02:45:10;8.50;99.90
8892;DHT22;4482;54.332;10.118;2023-05-07T02:47:37;8.50;99.90
8892;DHT22;4482;54.332;10.118;2023-05-07T02:50:06;8.50;99.90
8892;DHT22;4482;54.332;10.118;2023-05-07T02:52:32;8.50;99.90
8892;DHT22;4482;54.332;10.118;2023-05-07T02:54:59;8.50;99.90
8892;DHT22;4482;54.332;10.118;2023-05-07T02:57:26;8.60;99.90
8892;DHT22;4482;54.332;10.118;2023-05-07T02:59:52;8.60;99.90
8892;DHT22;4482;54.332;10.118;2023-05-07T03:02:19;8.60;99.90
8892;DHT22;4482;54.332;10.118;2023-05-07T03:04:46;8.60;99.90
8892;DHT22;4482;54.332;10.118;2023-05-07T03:07:14;8.60;99.90
8892;DHT22;4482;54.332;10.118;2023-05-07T03:09:40;8.60;99.90
8892;DHT22;4482;54.332;10.118;2023-05-07T03:12:07;8.60;99.90
8892;DHT22;4482;54.332;10.118;2023-05-07T03:14:34;8.60;99.90
8892;DHT22;4482;54.332;10.118;2023-05-07T03:17:00;8.60;99.90
8892;DHT22;4482;54.332;10.118;2023-05-07T03:19:27;8.70;99.90
8892;DHT22;4482;54.332;10.118;2023-05-07T03:21:55;8.70;99.90
8892;DHT22;4482;54.332;10.118;2023-05-07T03:24:23;8.60;99.90
8892;DHT22;4482;54.332;10.118;2023-05-07T03:26:50;8.60;99.90
8892;DHT22;4482;54.332;10.118;2023-05-07T03:29:17;8.60;99.90
8892;DHT22;4482;54.332;10.118;2023-05-07T03:31:43;8.70;99.90
8892;DHT22;4482;54.332;10.118;2023-05-07T03:34:10;8.70;99.90
8892;DHT22;4482;54.332;10.118;2023-05-07T03:36:37;8.70;99.90
8892;DHT22;4482;54.332;10.118;2023-05-07T03:39:03;8.60;99.90
8892;DHT22;4482;54.332;10.118;2023-05-07T03:41:31;8.70;99.90
8892;DHT22;4482;54.332;10.118;2023-05-07T03:43:58;8.60;99.90
8892;DHT22;4482;54.332;10.118;2023-05-07T03:46:25;8.70;99.90
8892;DHT22;4482;54.332;10.118;2023-05-07T03:48:53;8.70;99.90
8892;DHT22;4482;54.332;10.118;2023-05-07T03:51:20;8.70;99.90
8892;DHT22;4482;54.332;10.118;2023-05-07T03:53:46;8.70;99.90
8892;DHT22;4482;54.332;10.118;2023-05-07T03:56:13;8.70;99.90
8892;DHT22;4482;54.332;10.118;2023-05-07T03:58:41;8.70;99.90
8892;DHT22;4482;54.332;10.118;2023-05-07T04:01:07;8.70;99.90
8892;DHT22;4482;54.332;10.118;2023-05-07T04:03:34;8.70;99.90
8892;DHT22;4482;54.332;10.118;2023-05-07T04:06:01;8.70;99.90
8892;DHT22;4482;54.332;10.118;2023-05-07T04:08:28;8.70;99.90
8892;DHT22;4482;54.332;10.118;2023-05-07T04:10:54;8.70;99.90
8892;DHT22;4482;54.332;10.118;2023-05-07T04:13:21;8.70;99.90
8892;DHT22;4482;54.332;10.118;2023-05-07T04:15:49;8.70;99.90
8892;DHT22;4482;54.332;10.118;2023-05-07T04:18:16;8.80;99.90
8892;DHT22;4482;54.332;10.118;2023-05-07T04:20:42;8.80;99.90
8892;DHT22;4482;54.332;10.118;2023-05-07T04:23:09;8.80;99.90
8892;DHT22;4482;54.332;10.118;2023-05-07T04:25:36;8.80;99.90
8892;DHT22;4482;54.332;10.118;2023-05-07T04:28:03;8.70;99.90
8892;DHT22;4482;54.332;10.118;2023-05-07T04:30:29;8.70;99.90
8892;DHT22;4482;54.332;10.118;2023-05-07T04:32:57;8.70;99.90
8892;DHT22;4482;54.332;10.118;2023-05-07T04:35:24;8.80;99.90
8892;DHT22;4482;54.332;10.118;2023-05-07T04:37:51;8.80;99.90
8892;DHT22;4482;54.332;10.118;2023-05-07T04:40:17;8.80;99.90
8892;DHT22;4482;54.332;10.118;2023-05-07T04:42:44;8.80;99.90
8892;DHT22;4482;54.332;10.118;2023-05-07T04:45:11;8.80;99.90
8892;DHT22;4482;54.332;10.118;2023-05-07T04:47:38;8.90;99.90
8892;DHT22;4482;54.332;10.118;2023-05-07T04:50:06;8.90;99.90
8892;DHT22;4482;54.332;10.118;2023-05-07T04:52:34;8.80;99.90
8892;DHT22;4482;54.332;10.118;2023-05-07T04:55:00;8.80;99.90
8892;DHT22;4482;54.332;10.118;2023-05-07T04:57:27;8.80;99.90
8892;DHT22;4482;54.332;10.118;2023-05-07T04:59:54;8.90;99.90
8892;DHT22;4482;54.332;10.118;2023-05-07T05:02:20;8.80;99.90
8892;DHT22;4482;54.332;10.118;2023-05-07T05:04:47;8.80;99.90
8892;DHT22;4482;54.332;10.118;2023-05-07T05:07:15;8.80;99.90
8892;DHT22;4482;54.332;10.118;2023-05-07T05:09:41;8.90;99.90
8892;DHT22;4482;54.332;10.118;2023-05-07T05:12:08;8.90;99.90
8892;DHT22;4482;54.332;10.118;2023-05-07T05:14:37;8.90;99.90
8892;DHT22;4482;54.332;10.118;2023-05-07T05:17:04;8.90;99.90
8892;DHT22;4482;54.332;10.118;2023-05-07T05:19:31;8.90;99.90
8892;DHT22;4482;54.332;10.118;2023-05-07T05:21:57;8.90;99.90
8892;DHT22;4482;54.332;10.118;2023-05-07T05:24:27;8.90;99.90
8892;DHT22;4482;54.332;10.118;2023-05-07T05:26:54;8.90;99.90
8892;DHT22;4482;54.332;10.118;2023-05-07T05:29:20;8.90;99.90
8892;DHT22;4482;54.332;10.118;2023-05-07T05:31:47;8.90;99.90
8892;DHT22;4482;54.332;10.118;2023-05-07T05:34:14;8.90;99.90
8892;DHT22;4482;54.332;10.118;2023-05-07T05:36:40;8.90;99.90
8892;DHT22;4482;54.332;10.118;2023-05-07T05:39:07;8.90;99.90
8892;DHT22;4482;54.332;10.118;2023-05-07T05:41:36;9.00;99.90
8892;DHT22;4482;54.332;10.118;2023-05-07T05:44:02;8.90;99.90
8892;DHT22;4482;54.332;10.118;2023-05-07T05:46:29;8.90;99.90
8892;DHT22;4482;54.332;10.118;2023-05-07T05:48:56;9.00;99.90
8892;DHT22;4482;54.332;10.118;2023-05-07T05:51:22;9.00;99.90
8892;DHT22;4482;54.332;10.118;2023-05-07T05:53:49;9.10;99.90
8892;DHT22;4482;54.332;10.118;2023-05-07T05:56:16;9.10;99.90
8892;DHT22;4482;54.332;10.118;2023-05-07T05:58:44;9.20;99.90
8892;DHT22;4482;54.332;10.118;2023-05-07T06:01:10;9.20;99.90
8892;DHT22;4482;54.332;10.118;2023-05-07T06:03:37;9.20;99.90
8892;DHT22;4482;54.332;10.118;2023-05-07T06:06:04;9.20;99.90
8892;DHT22;4482;54.332;10.118;2023-05-07T06:08:31;9.30;99.90
8892;DHT22;4482;54.332;10.118;2023-05-07T06:10:58;9.30;99.90
8892;DHT22;4482;54.332;10.118;2023-05-07T06:13:24;9.30;99.90
8892;DHT22;4482;54.332;10.118;2023-05-07T06:15:52;9.30;99.90
8892;DHT22;4482;54.332;10.118;2023-05-07T06:18:19;9.20;99.90
8892;DHT22;4482;54.332;10.118;2023-05-07T06:20:46;9.30;99.90
8892;DHT22;4482;54.332;10.118;2023-05-07T06:23:13;9.30;99.90
8892;DHT22;4482;54.332;10.118;2023-05-07T06:25:40;9.30;99.90
8892;DHT22;4482;54.332;10.118;2023-05-07T06:28:07;9.40;99.90
8892;DHT22;4482;54.332;10.118;2023-05-07T06:30:36;9.40;99.90
8892;DHT22;4482;54.332;10.118;2023-05-07T06:33:04;9.40;99.90
8892;DHT22;4482;54.332;10.118;2023-05-07T06:35:31;9.50;99.90
8892;DHT22;4482;54.332;10.118;2023-05-07T06:37:57;9.40;99.90
8892;DHT22;4482;54.332;10.118;2023-05-07T06:40:24;9.50;99.90
8892;DHT22;4482;54.332;10.118;2023-05-07T06:42:51;9.50;99.90
8892;DHT22;4482;54.332;10.118;2023-05-07T06:45:18;9.70;99.90
8892;DHT22;4482;54.332;10.118;2023-05-07T06:47:45;9.80;99.90
8892;DHT22;4482;54.332;10.118;2023-05-07T06:50:13;9.80;99.90
8892;DHT22;4482;54.332;10.118;2023-05-07T06:52:41;9.90;99.90
8892;DHT22;4482;54.332;10.118;2023-05-07T06:55:08;9.90;99.90
8892;DHT22;4482;54.332;10.118;2023-05-07T06:57:36;9.80;99.90
8892;DHT22;4482;54.332;10.118;2023-05-07T07:00:03;9.80;99.90
8892;DHT22;4482;54.332;10.118;2023-05-07T07:02:32;9.90;99.90
8892;DHT22;4482;54.332;10.118;2023-05-07T07:04:58;9.90;99.90
8892;DHT22;4482;54.332;10.118;2023-05-07T07:07:26;10.00;99.90
8892;DHT22;4482;54.332;10.118;2023-05-07T07:09:53;10.00;99.90
8892;DHT22;4482;54.332;10.118;2023-05-07T07:12:20;10.00;99.90
8892;DHT22;4482;54.332;10.118;2023-05-07T07:14:47;10.20;99.90
8892;DHT22;4482;54.332;10.118;2023-05-07T07:17:14;10.30;99.90
8892;DHT22;4482;54.332;10.118;2023-05-07T07:19:41;10.40;99.90
8892;DHT22;4482;54.332;10.118;2023-05-07T07:22:07;10.50;99.90
8892;DHT22;4482;54.332;10.118;2023-05-07T07:24:35;10.60;99.90
8892;DHT22;4482;54.332;10.118;2023-05-07T07:27:02;11.10;99.90
8892;DHT22;4482;54.332;10.118;2023-05-07T07:29:29;11.60;99.90
8892;DHT22;4482;54.332;10.118;2023-05-07T07:31:55;11.50;99.90
8892;DHT22;4482;54.332;10.118;2023-05-07T07:34:22;11.20;99.90
8892;DHT22;4482;54.332;10.118;2023-05-07T07:36:49;11.00;99.90
8892;DHT22;4482;54.332;10.118;2023-05-07T07:39:15;11.10;99.90
8892;DHT22;4482;54.332;10.118;2023-05-07T07:41:43;11.00;99.90
8892;DHT22;4482;54.332;10.118;2023-05-07T07:44:10;11.00;99.90
8892;DHT22;4482;54.332;10.118;2023-05-07T07:46:38;11.30;99.90
8892;DHT22;4482;54.332;10.118;2023-05-07T07:49:05;11.70;99.90
8892;DHT22;4482;54.332;10.118;2023-05-07T07:51:31;13.30;99.90
8892;DHT22;4482;54.332;10.118;2023-05-07T07:53:58;13.80;99.90
8892;DHT22;4482;54.332;10.118;2023-05-07T07:56:25;14.30;99.90
8892;DHT22;4482;54.332;10.118;2023-05-07T07:58:53;14.60;99.90
8892;DHT22;4482;54.332;10.118;2023-05-07T08:01:19;13.70;99.90
8892;DHT22;4482;54.332;10.118;2023-05-07T08:03:46;13.00;99.90
8892;DHT22;4482;54.332;10.118;2023-05-07T08:06:12;12.40;99.90
8892;DHT22;4482;54.332;10.118;2023-05-07T08:08:39;12.30;99.90
8892;DHT22;4482;54.332;10.118;2023-05-07T08:11:06;12.10;99.90
8892;DHT22;4482;54.332;10.118;2023-05-07T08:13:33;12.10;99.90
8892;DHT22;4482;54.332;10.118;2023-05-07T08:16:00;11.90;99.90
8892;DHT22;4482;54.332;10.118;2023-05-07T08:18:27;12.50;99.90
8892;DHT22;4482;54.332;10.118;2023-05-07T08:20:54;12.70;99.90
8892;DHT22;4482;54.332;10.118;2023-05-07T08:23:21;13.00;99.90
8892;DHT22;4482;54.332;10.118;2023-05-07T08:25:49;13.20;99.90
8892;DHT22;4482;54.332;10.118;2023-05-07T08:28:16;12.70;99.90
8892;DHT22;4482;54.332;10.118;2023-05-07T08:30:43;12.50;99.90
8892;DHT22;4482;54.332;10.118;2023-05-07T08:33:11;12.20;99.90
8892;DHT22;4482;54.332;10.118;2023-05-07T08:35:37;12.20;99.90
8892;DHT22;4482;54.332;10.118;2023-05-07T08:38:10;12.60;99.90
8892;DHT22;4482;54.332;10.118;2023-05-07T08:40:38;12.40;99.90
8892;DHT22;4482;54.332;10.118;2023-05-07T08:43:06;12.80;99.90
8892;DHT22;4482;54.332;10.118;2023-05-07T08:45:33;13.10;99.90
8892;DHT22;4482;54.332;10.118;2023-05-07T08:48:01;12.90;99.90
8892;DHT22;4482;54.332;10.118;2023-05-07T08:50:29;13.20;99.90
8892;DHT22;4482;54.332;10.118;2023-05-07T08:52:56;15.10;99.90
8892;DHT22;4482;54.332;10.118;2023-05-07T08:55:23;16.40;99.90
8892;DHT22;4482;54.332;10.118;2023-05-07T08:57:50;15.80;99.90
8892;DHT22;4482;54.332;10.118;2023-05-07T09:00:18;14.70;99.90
8892;DHT22;4482;54.332;10.118;2023-05-07T09:02:44;14.00;99.90
8892;DHT22;4482;54.332;10.118;2023-05-07T09:05:11;13.60;99.90
8892;DHT22;4482;54.332;10.118;2023-05-07T09:07:42;12.90;99.90
8892;DHT22;4482;54.332;10.118;2023-05-07T09:10:09;12.40;99.90
8892;DHT22;4482;54.332;10.118;2023-05-07T09:12:36;12.30;99.90
8892;DHT22;4482;54.332;10.118;2023-05-07T09:15:04;12.40;99.90
8892;DHT22;4482;54.332;10.118;2023-05-07T09:17:31;13.10;99.90
8892;DHT22;4482;54.332;10.118;2023-05-07T09:20:01;12.90;99.90
8892;DHT22;4482;54.332;10.118;2023-05-07T09:22:29;12.70;99.90
8892;DHT22;4482;54.332;10.118;2023-05-07T09:24:59;12.80;99.90
8892;DHT22;4482;54.332;10.118;2023-05-07T09:27:25;13.00;99.90
8892;DHT22;4482;54.332;10.118;2023-05-07T09:29:52;14.20;99.90
8892;DHT22;4482;54.332;10.118;2023-05-07T09:32:18;14.50;99.90
8892;DHT22;4482;54.332;10.118;2023-05-07T09:34:45;14.20;99.90
8892;DHT22;4482;54.332;10.118;2023-05-07T09:37:12;13.80;99.90
8892;DHT22;4482;54.332;10.118;2023-05-07T09:39:40;13.10;99.90
8892;DHT22;4482;54.332;10.118;2023-05-07T09:42:08;12.60;99.90
8892;DHT22;4482;54.332;10.118;2023-05-07T09:44:35;12.60;99.90
8892;DHT22;4482;54.332;10.118;2023-05-07T09:47:04;13.00;99.90
8892;DHT22;4482;54.332;10.118;2023-05-07T09:49:33;12.90;99.90
8892;DHT22;4482;54.332;10.118;2023-05-07T09:52:00;13.60;99.90
8892;DHT22;4482;54.332;10.118;2023-05-07T09:54:27;13.80;99.90
8892;DHT22;4482;54.332;10.118;2023-05-07T09:56:56;13.60;99.90
8892;DHT22;4482;54.332;10.118;2023-05-07T09:59:24;13.60;99.90
8892;DHT22;4482;54.332;10.118;2023-05-07T10:01:51;13.40;99.90
8892;DHT22;4482;54.332;10.118;2023-05-07T10:04:18;13.50;99.90
8892;DHT22;4482;54.332;10.118;2023-05-07T10:06:46;13.50;99.90
8892;DHT22;4482;54.332;10.118;2023-05-07T10:09:13;13.80;99.90
8892;DHT22;4482;54.332;10.118;2023-05-07T10:11:40;13.80;99.90
8892;DHT22;4482;54.332;10.118;2023-05-07T10:14:07;15.00;99.90
8892;DHT22;4482;54.332;10.118;2023-05-07T10:16:36;16.00;99.90
8892;DHT22;4482;54.332;10.118;2023-05-07T10:19:05;16.40;99.90
8892;DHT22;4482;54.332;10.118;2023-05-07T10:21:32;17.20;99.90
8892;DHT22;4482;54.332;10.118;2023-05-07T10:24:03;17.00;99.90
8892;DHT22;4482;54.332;10.118;2023-05-07T10:26:33;17.10;99.90
8892;DHT22;4482;54.332;10.118;2023-05-07T10:29:02;16.50;99.90
8892;DHT22;4482;54.332;10.118;2023-05-07T10:31:39;15.30;99.90
8892;DHT22;4482;54.332;10.118;2023-05-07T10:34:09;15.10;99.90
8892;DHT22;4482;54.332;10.118;2023-05-07T10:36:37;15.50;99.90
8892;DHT22;4482;54.332;10.118;2023-05-07T10:39:04;15.00;99.90
8892;DHT22;4482;54.332;10.118;2023-05-07T10:41:31;15.10;99.90
8892;DHT22;4482;54.332;10.118;2023-05-07T10:43:58;15.20;99.90
8892;DHT22;4482;54.332;10.118;2023-05-07T10:46:26;14.70;99.90
8892;DHT22;4482;54.332;10.118;2023-05-07T10:49:13;15.20;99.90
8892;DHT22;4482;54.332;10.118;2023-05-07T10:51:40;16.50;99.90
8892;DHT22;4482;54.332;10.118;2023-05-07T10:54:21;17.90;99.90
8892;DHT22;4482;54.332;10.118;2023-05-07T10:56:48;18.80;99.90
8892;DHT22;4482;54.332;10.118;2023-05-07T10:59:34;17.90;99.90
8892;DHT22;4482;54.332;10.118;2023-05-07T11:02:07;16.60;99.90
8892;DHT22;4482;54.332;10.118;2023-05-07T11:04:36;16.30;99.90
8892;DHT22;4482;54.332;10.118;2023-05-07T11:09:54;14.60;99.90
8892;DHT22;4482;54.332;10.118;2023-05-07T11:15:02;14.90;99.90
8892;DHT22;4482;54.332;10.118;2023-05-07T11:17:29;15.60;99.90
8892;DHT22;4482;54.332;10.118;2023-05-07T11:19:58;17.00;99.90
8892;DHT22;4482;54.332;10.118;2023-05-07T11:22:36;18.80;99.90
8892;DHT22;4482;54.332;10.118;2023-05-07T11:25:05;20.60;99.90
8892;DHT22;4482;54.332;10.118;2023-05-07T11:27:32;21.00;99.90
8892;DHT22;4482;54.332;10.118;2023-05-07T11:29:59;20.20;99.90
8892;DHT22;4482;54.332;10.118;2023-05-07T11:32:26;20.80;99.70
8892;DHT22;4482;54.332;10.118;2023-05-07T11:34:53;20.70;99.30
8892;DHT22;4482;54.332;10.118;2023-05-07T11:37:22;20.30;99.50
8892;DHT22;4482;54.332;10.118;2023-05-07T11:39:48;20.70;98.90
8892;DHT22;4482;54.332;10.118;2023-05-07T11:42:25;20.30;99.00
8892;DHT22;4482;54.332;10.118;2023-05-07T11:44:51;19.10;99.90
8892;DHT22;4482;54.332;10.118;2023-05-07T11:47:18;19.70;99.90
8892;DHT22;4482;54.332;10.118;2023-05-07T11:49:45;18.50;99.90
8892;DHT22;4482;54.332;10.118;2023-05-07T11:52:13;18.30;99.90
8892;DHT22;4482;54.332;10.118;2023-05-07T11:54:41;18.20;99.90
8892;DHT22;4482;54.332;10.118;2023-05-07T11:57:14;16.90;99.90
8892;DHT22;4482;54.332;10.118;2023-05-07T11:59:40;16.50;99.90
8892;DHT22;4482;54.332;10.118;2023-05-07T12:02:07;16.20;99.90
8892;DHT22;4482;54.332;10.118;2023-05-07T12:04:33;15.90;99.90
8892;DHT22;4482;54.332;10.118;2023-05-07T12:07:00;15.80;99.90
8892;DHT22;4482;54.332;10.118;2023-05-07T12:09:27;15.60;99.90
8892;DHT22;4482;54.332;10.118;2023-05-07T12:11:55;15.40;99.90
8892;DHT22;4482;54.332;10.118;2023-05-07T12:14:22;15.20;99.90
8892;DHT22;4482;54.332;10.118;2023-05-07T12:16:48;15.40;99.90
8892;DHT22;4482;54.332;10.118;2023-05-07T12:19:16;15.40;99.90
8892;DHT22;4482;54.332;10.118;2023-05-07T12:21:43;15.60;99.90
8892;DHT22;4482;54.332;10.118;2023-05-07T12:24:10;16.00;99.90
8892;DHT22;4482;54.332;10.118;2023-05-07T12:26:37;16.00;99.90
8892;DHT22;4482;54.332;10.118;2023-05-07T12:29:05;15.90;99.90
8892;DHT22;4482;54.332;10.118;2023-05-07T12:31:32;16.20;99.90
8892;DHT22;4482;54.332;10.118;2023-05-07T12:33:59;16.20;99.90
8892;DHT22;4482;54.332;10.118;2023-05-07T12:36:26;16.00;99.90
8892;DHT22;4482;54.332;10.118;2023-05-07T12:38:52;15.80;99.90
8892;DHT22;4482;54.332;10.118;2023-05-07T12:41:20;15.80;99.90
8892;DHT22;4482;54.332;10.118;2023-05-07T12:43:51;15.90;99.90
8892;DHT22;4482;54.332;10.118;2023-05-07T12:46:23;16.10;99.90
8892;DHT22;4482;54.332;10.118;2023-05-07T12:48:50;16.40;99.90
8892;DHT22;4482;54.332;10.118;2023-05-07T12:51:18;16.50;99.90
8892;DHT22;4482;54.332;10.118;2023-05-07T12:53:45;16.60;99.90
8892;DHT22;4482;54.332;10.118;2023-05-07T12:56:11;16.40;99.90
8892;DHT22;4482;54.332;10.118;2023-05-07T12:58:41;16.30;99.90
8892;DHT22;4482;54.332;10.118;2023-05-07T13:01:08;16.40;99.90
8892;DHT22;4482;54.332;10.118;2023-05-07T13:03:37;16.20;99.90
8892;DHT22;4482;54.332;10.118;2023-05-07T13:06:05;16.00;99.90
8892;DHT22;4482;54.332;10.118;2023-05-07T13:08:32;15.90;99.90
8892;DHT22;4482;54.332;10.118;2023-05-07T13:11:00;15.90;99.90
8892;DHT22;4482;54.332;10.118;2023-05-07T13:13:28;16.10;99.90
8892;DHT22;4482;54.332;10.118;2023-05-07T13:15:55;16.40;99.90
8892;DHT22;4482;54.332;10.118;2023-05-07T13:18:24;16.50;99.90
8892;DHT22;4482;54.332;10.118;2023-05-07T13:20:52;16.40;99.90
8892;DHT22;4482;54.332;10.118;2023-05-07T13:23:18;16.40;99.90
8892;DHT22;4482;54.332;10.118;2023-05-07T13:25:45;16.50;99.90
8892;DHT22;4482;54.332;10.118;2023-05-07T13:28:12;16.50;99.90
8892;DHT22;4482;54.332;10.118;2023-05-07T13:30:38;16.40;99.90
8892;DHT22;4482;54.332;10.118;2023-05-07T13:33:06;16.20;99.90
8892;DHT22;4482;54.332;10.118;2023-05-07T13:35:32;16.30;99.90
8892;DHT22;4482;54.332;10.118;2023-05-07T13:38:00;16.20;99.90
8892;DHT22;4482;54.332;10.118;2023-05-07T13:40:27;16.30;99.90
8892;DHT22;4482;54.332;10.118;2023-05-07T13:42:53;16.20;99.90
8892;DHT22;4482;54.332;10.118;2023-05-07T13:45:20;16.30;99.90
8892;DHT22;4482;54.332;10.118;2023-05-07T13:47:47;16.50;99.90
8892;DHT22;4482;54.332;10.118;2023-05-07T13:50:14;16.60;99.90
8892;DHT22;4482;54.332;10.118;2023-05-07T13:52:41;16.50;99.90
8892;DHT22;4482;54.332;10.118;2023-05-07T13:55:12;16.60;99.90
8892;DHT22;4482;54.332;10.118;2023-05-07T13:57:39;16.50;99.90
8892;DHT22;4482;54.332;10.118;2023-05-07T14:00:06;16.40;99.90
8892;DHT22;4482;54.332;10.118;2023-05-07T14:02:33;16.20;99.90
8892;DHT22;4482;54.332;10.118;2023-05-07T14:05:00;16.10;99.90
8892;DHT22;4482;54.332;10.118;2023-05-07T14:07:27;16.10;99.90
8892;DHT22;4482;54.332;10.118;2023-05-07T14:09:53;16.10;99.90
8892;DHT22;4482;54.332;10.118;2023-05-07T14:12:21;16.10;99.90
8892;DHT22;4482;54.332;10.118;2023-05-07T14:14:48;16.20;99.90
8892;DHT22;4482;54.332;10.118;2023-05-07T14:17:15;16.20;99.90
8892;DHT22;4482;54.332;10.118;2023-05-07T14:19:42;16.20;99.90
8892;DHT22;4482;54.332;10.118;2023-05-07T14:22:08;16.20;99.90
8892;DHT22;4482;54.332;10.118;2023-05-07T14:24:35;16.40;99.90
8892;DHT22;4482;54.332;10.118;2023-05-07T14:27:02;16.40;99.90
8892;DHT22;4482;54.332;10.118;2023-05-07T14:29:30;16.40;99.90
8892;DHT22;4482;54.332;10.118;2023-05-07T14:31:56;16.30;99.90
8892;DHT22;4482;54.332;10.118;2023-05-07T14:34:23;16.40;99.90
8892;DHT22;4482;54.332;10.118;2023-05-07T14:36:49;16.50;99.90
8892;DHT22;4482;54.332;10.118;2023-05-07T14:39:17;16.50;99.90
8892;DHT22;4482;54.332;10.118;2023-05-07T14:41:43;16.20;99.90
8892;DHT22;4482;54.332;10.118;2023-05-07T14:44:10;16.10;99.90
8892;DHT22;4482;54.332;10.118;2023-05-07T14:46:38;16.00;99.90
8892;DHT22;4482;54.332;10.118;2023-05-07T14:49:05;15.90;99.90
8892;DHT22;4482;54.332;10.118;2023-05-07T14:51:32;16.20;99.90
8892;DHT22;4482;54.332;10.118;2023-05-07T14:53:58;16.40;99.90
8892;DHT22;4482;54.332;10.118;2023-05-07T14:56:25;16.30;99.90
8892;DHT22;4482;54.332;10.118;2023-05-07T14:58:52;16.20;99.90
8892;DHT22;4482;54.332;10.118;2023-05-07T15:01:19;16.10;99.90
8892;DHT22;4482;54.332;10.118;2023-05-07T15:03:48;16.20;99.90
8892;DHT22;4482;54.332;10.118;2023-05-07T15:06:14;16.20;99.90
8892;DHT22;4482;54.332;10.118;2023-05-07T15:08:41;16.10;99.90
8892;DHT22;4482;54.332;10.118;2023-05-07T15:11:08;16.10;99.90
8892;DHT22;4482;54.332;10.118;2023-05-07T15:13:34;16.00;99.90
8892;DHT22;4482;54.332;10.118;2023-05-07T15:16:02;15.90;99.90
8892;DHT22;4482;54.332;10.118;2023-05-07T15:18:28;15.80;99.90
8892;DHT22;4482;54.332;10.118;2023-05-07T15:20:57;15.80;99.90
8892;DHT22;4482;54.332;10.118;2023-05-07T15:23:24;16.00;99.90
8892;DHT22;4482;54.332;10.118;2023-05-07T15:25:51;16.00;99.90
8892;DHT22;4482;54.332;10.118;2023-05-07T15:28:18;15.90;99.90
8892;DHT22;4482;54.332;10.118;2023-05-07T15:30:45;15.90;99.90
8892;DHT22;4482;54.332;10.118;2023-05-07T15:33:11;15.90;99.90
8892;DHT22;4482;54.332;10.118;2023-05-07T15:35:38;15.80;99.90
8892;DHT22;4482;54.332;10.118;2023-05-07T15:38:06;15.70;99.90
8892;DHT22;4482;54.332;10.118;2023-05-07T15:40:33;15.70;99.90
8892;DHT22;4482;54.332;10.118;2023-05-07T15:43:00;15.70;99.90
8892;DHT22;4482;54.332;10.118;2023-05-07T15:45:27;15.70;99.90
8892;DHT22;4482;54.332;10.118;2023-05-07T15:47:54;15.70;99.90
8892;DHT22;4482;54.332;10.118;2023-05-07T15:50:21;15.70;99.90
8892;DHT22;4482;54.332;10.118;2023-05-07T15:52:48;15.80;99.90
8892;DHT22;4482;54.332;10.118;2023-05-07T15:55:16;15.80;99.90
8892;DHT22;4482;54.332;10.118;2023-05-07T15:57:43;15.80;99.90